Time;durP1;ratioP1;P1;durP2;ratioP2;P2;SDS_P1;SDS_P2;PMS_P1;PMS_P2;Temp;Humidity;BMP_temperature;BMP_pressure;BME280_temperature;BME280_humidity;BME280_pressure;Samples;Min_cycle;Max_cycle;Signal;HPM_P1;HPM_P2
2022/12/08 16:51:54;;;;;;;10.85;6.60;;;2.30;99.90;;;;;;5062534;28;20377;-63
2022/12/08 16:54:19;;;;;;;15.07;8.30;;;2.40;99.90;;;;;;5067609;28;20125;-63
2022/12/08 16:56:45;;;;;;;16.38;9.13;;;2.50;99.90;;;;;;5067596;28;20108;-63
2022/12/08 16:59:11;;;;;;;19.63;10.35;;;2.60;99.90;;;;;;5064248;28;20021;-63
2022/12/08 17:01:36;;;;;;;17.33;10.38;;;2.70;99.90;;;;;;5048009;28;20041;-64
2022/12/08 17:04:02;;;;;;;18.10;10.88;;;2.80;99.90;;;;;;5047706;28;20370;-64
2022/12/08 17:06:27;;;;;;;21.13;12.40;;;2.90;99.90;;;;;;5047705;28;20080;-64
2022/12/08 17:08:53;;;;;;;22.60;13.32;;;3.00;99.90;;;;;;5047901;28;20031;-65
2022/12/08 17:11:21;;;;;;;20.67;12.85;;;3.00;99.90;;;;;;5048215;28;20029;-63
2022/12/08 17:13:47;;;;;;;19.83;12.23;;;3.10;99.90;;;;;;5062404;28;20053;-64
2022/12/08 17:16:16;;;;;;;16.65;9.95;;;3.20;99.90;;;;;;5048117;28;20434;-63
2022/12/08 17:18:42;;;;;;;17.42;9.95;;;3.30;99.90;;;;;;5065034;28;20029;-63
2022/12/08 17:21:12;;;;;;;16.88;9.57;;;3.30;99.90;;;;;;5066938;28;20389;-64
2022/12/08 17:23:39;;;;;;;17.45;10.35;;;3.40;99.90;;;;;;5068150;28;20043;-64
2022/12/08 17:26:04;;;;;;;20.45;11.27;;;3.40;99.90;;;;;;5067799;28;20536;-64
2022/12/08 17:28:30;;;;;;;19.85;11.63;;;3.50;99.90;;;;;;5064809;28;20017;-64
2022/12/08 17:30:56;;;;;;;21.63;12.90;;;3.60;99.90;;;;;;5046962;28;20116;-64
2022/12/08 17:33:22;;;;;;;24.77;13.63;;;3.60;99.90;;;;;;5047623;28;20017;-63
2022/12/08 17:35:48;;;;;;;20.42;12.10;;;3.60;99.90;;;;;;5046825;28;20037;-64
2022/12/08 17:38:14;;;;;;;22.77;12.70;;;3.60;99.90;;;;;;5048547;28;20017;-64
2022/12/08 17:40:40;;;;;;;25.42;13.98;;;3.60;99.90;;;;;;5047540;28;20026;-63
2022/12/08 17:43:05;;;;;;;18.38;10.70;;;3.60;99.90;;;;;;5061799;28;20029;-64
2022/12/08 17:45:31;;;;;;;21.48;12.38;;;3.60;99.90;;;;;;5047734;28;20378;-63
2022/12/08 17:47:56;;;;;;;18.33;10.18;;;3.60;99.90;;;;;;5047121;28;20357;-64
2022/12/08 17:50:22;;;;;;;21.05;12.30;;;3.60;99.90;;;;;;5046662;28;20053;-64
2022/12/08 17:52:51;;;;;;;22.48;12.18;;;3.70;99.90;;;;;;5047937;28;20035;-64
2022/12/08 17:55:16;;;;;;;26.42;14.70;;;3.70;99.90;;;;;;5046077;28;20043;-64
2022/12/08 17:57:42;;;;;;;24.13;13.50;;;3.70;99.90;;;;;;5056989;28;20525;-64
2022/12/08 18:00:09;;;;;;;24.73;13.60;;;3.70;99.90;;;;;;5047008;28;20025;-64
2022/12/08 18:02:36;;;;;;;26.75;14.52;;;3.80;99.90;;;;;;5036878;28;20090;-64
2022/12/08 18:05:03;;;;;;;26.17;13.80;;;3.80;99.90;;;;;;5033941;28;20438;-63
2022/12/08 18:07:28;;;;;;;26.15;12.80;;;3.70;99.90;;;;;;5041044;28;20047;-64
2022/12/08 18:09:54;;;;;;;29.17;16.15;;;3.80;99.90;;;;;;5051366;28;20397;-64
2022/12/08 18:12:20;;;;;;;28.83;15.18;;;3.80;99.90;;;;;;5036173;28;20060;-64
2022/12/08 18:14:46;;;;;;;33.15;16.75;;;3.80;99.90;;;;;;5037776;28;20033;-64
2022/12/08 18:17:11;;;;;;;36.17;17.02;;;3.80;99.90;;;;;;5044003;28;20024;-65
2022/12/08 18:19:37;;;;;;;32.83;18.63;;;3.80;99.90;;;;;;5048580;28;20033;-63
2022/12/08 18:22:03;;;;;;;28.27;15.13;;;3.80;99.90;;;;;;5043164;28;20025;-63
2022/12/08 18:24:28;;;;;;;28.10;14.82;;;3.80;99.90;;;;;;5051862;28;20108;-64
2022/12/08 18:26:56;;;;;;;31.30;14.60;;;3.70;99.90;;;;;;5050870;28;20326;-63
2022/12/08 18:29:22;;;;;;;30.63;15.80;;;3.80;99.90;;;;;;5052411;28;20025;-64
2022/12/08 18:31:49;;;;;;;29.35;14.73;;;3.80;99.90;;;;;;5047584;28;20102;-64
2022/12/08 18:34:14;;;;;;;25.13;13.77;;;3.80;99.90;;;;;;5052583;28;20099;-64
2022/12/08 18:36:40;;;;;;;30.73;15.13;;;3.80;99.90;;;;;;5052529;28;20033;-64
2022/12/08 18:39:06;;;;;;;26.90;14.88;;;3.80;99.90;;;;;;5051723;28;20029;-64
2022/12/08 18:41:31;;;;;;;28.30;15.65;;;3.80;99.90;;;;;;5053155;28;20047;-62
2022/12/08 18:43:57;;;;;;;28.92;14.60;;;3.80;99.90;;;;;;5047035;28;20081;-62
2022/12/08 18:46:23;;;;;;;32.72;16.55;;;3.80;99.90;;;;;;5050398;28;20460;-63
2022/12/08 18:48:50;;;;;;;28.00;15.57;;;3.80;99.90;;;;;;5050751;28;20044;-62
2022/12/08 18:51:21;;;;;;;27.95;15.20;;;3.80;99.90;;;;;;5052089;28;20053;-62
2022/12/08 18:53:47;;;;;;;25.63;14.00;;;3.80;99.90;;;;;;5050273;28;20485;-62
2022/12/08 18:56:30;;;;;;;26.52;14.63;;;3.80;99.90;;;;;;5052585;28;20025;-61
2022/12/08 18:58:58;;;;;;;28.42;15.27;;;3.80;99.90;;;;;;5051579;28;20021;-62
2022/12/08 19:01:24;;;;;;;32.83;17.50;;;3.80;99.90;;;;;;5040524;28;20025;-62
2022/12/08 19:03:50;;;;;;;32.10;17.20;;;3.80;99.90;;;;;;5031601;28;20028;-60
2022/12/08 19:06:16;;;;;;;36.58;18.63;;;3.80;99.90;;;;;;5032761;28;20033;-62
2022/12/08 19:08:41;;;;;;;32.65;16.50;;;3.80;99.90;;;;;;5032081;28;20113;-62
2022/12/08 19:11:18;;;;;;;31.67;17.75;;;3.80;99.90;;;;;;5031742;28;20044;-62
2022/12/08 19:13:43;;;;;;;38.42;18.98;;;3.90;99.90;;;;;;5030606;28;20048;-62
2022/12/08 19:16:09;;;;;;;36.80;19.17;;;3.90;99.90;;;;;;5031682;28;20057;-61
2022/12/08 19:18:34;;;;;;;33.72;16.95;;;3.90;99.90;;;;;;5031871;28;20021;-62
2022/12/08 19:21:00;;;;;;;33.97;17.48;;;3.90;99.90;;;;;;5031831;28;20319;-60
2022/12/08 19:23:27;;;;;;;29.27;14.75;;;3.90;99.90;;;;;;5032808;28;20036;-61
2022/12/08 19:25:53;;;;;;;25.50;14.82;;;3.90;99.90;;;;;;5031458;28;20025;-61
2022/12/08 19:28:19;;;;;;;33.03;15.73;;;4.00;99.90;;;;;;5031313;28;20024;-62
2022/12/08 19:30:46;;;;;;;30.27;15.70;;;4.00;99.90;;;;;;5032496;28;20068;-61
2022/12/08 19:33:11;;;;;;;37.35;16.70;;;4.00;99.90;;;;;;5046567;28;20518;-63
2022/12/08 19:35:37;;;;;;;34.03;17.58;;;4.00;99.90;;;;;;5031773;28;20054;-63
2022/12/08 19:38:03;;;;;;;37.30;18.70;;;4.00;99.90;;;;;;5030403;28;20029;-62
2022/12/08 19:45:57;;;;;;;35.90;18.35;;;4.00;99.90;;;;;;5051109;28;20041;-63
2022/12/08 19:48:23;;;;;;;34.25;18.95;;;4.00;99.90;;;;;;5050340;28;20052;-63
2022/12/08 19:50:49;;;;;;;32.08;16.15;;;4.00;99.90;;;;;;5050688;28;20051;-64
2022/12/08 19:53:15;;;;;;;33.88;17.20;;;4.00;99.90;;;;;;5038834;28;20433;-63
2022/12/08 19:55:41;;;;;;;38.47;18.67;;;4.00;99.90;;;;;;5046405;28;20536;-63
2022/12/08 19:58:08;;;;;;;35.67;18.20;;;4.00;99.90;;;;;;5031185;28;20497;-63
2022/12/08 20:00:35;;;;;;;35.90;18.25;;;4.00;99.90;;;;;;5032337;28;20070;-64
2022/12/08 20:03:01;;;;;;;33.70;15.35;;;4.00;99.90;;;;;;5030296;28;20064;-63
2022/12/08 20:05:28;;;;;;;31.65;16.02;;;4.00;99.90;;;;;;5046118;28;20386;-63
2022/12/08 20:07:54;;;;;;;31.23;15.18;;;4.00;99.90;;;;;;5030362;28;20025;-64
2022/12/08 20:10:30;;;;;;;29.95;14.70;;;4.00;99.90;;;;;;5030918;28;20062;-63
2022/12/08 20:15:41;;;;;;;31.27;15.13;;;4.00;99.90;;;;;;5031581;28;20043;-63
2022/12/08 20:18:07;;;;;;;28.33;14.93;;;4.00;99.90;;;;;;5031206;28;20074;-63
2022/12/08 20:20:33;;;;;;;28.88;14.60;;;4.00;99.90;;;;;;5031141;28;20021;-63
2022/12/08 20:22:58;;;;;;;29.52;14.90;;;4.00;99.90;;;;;;5046201;28;20036;-63
2022/12/08 20:25:24;;;;;;;27.30;14.60;;;4.00;99.90;;;;;;5049758;28;20025;-63
2022/12/08 20:27:49;;;;;;;27.52;14.30;;;4.00;99.90;;;;;;5050475;28;20032;-63
2022/12/08 20:30:16;;;;;;;27.90;13.65;;;4.00;99.90;;;;;;5045343;28;20378;-63
2022/12/08 20:32:41;;;;;;;30.05;15.07;;;4.10;99.90;;;;;;5049169;28;20056;-63
2022/12/08 20:35:07;;;;;;;28.70;14.90;;;4.00;99.90;;;;;;5048945;28;20017;-63
2022/12/08 20:37:33;;;;;;;25.17;13.20;;;4.00;99.90;;;;;;5048103;28;20718;-63
2022/12/08 20:39:58;;;;;;;33.58;15.35;;;4.00;99.90;;;;;;5050335;28;20469;-64
2022/12/08 20:42:24;;;;;;;33.58;17.05;;;4.00;99.90;;;;;;5050239;28;20013;-63
2022/12/08 20:44:50;;;;;;;30.55;15.52;;;4.00;99.90;;;;;;5044074;28;20017;-63
2022/12/08 20:47:16;;;;;;;31.67;14.30;;;4.00;99.90;;;;;;5050381;28;20100;-63
2022/12/08 20:49:41;;;;;;;29.88;14.02;;;4.00;99.90;;;;;;5040074;28;20482;-63
2022/12/08 20:52:07;;;;;;;25.88;13.98;;;4.00;99.90;;;;;;5036727;28;20494;-63
2022/12/08 20:54:34;;;;;;;32.13;16.10;;;4.00;99.90;;;;;;5031471;28;20060;-63
2022/12/08 20:57:00;;;;;;;32.33;15.90;;;4.00;99.90;;;;;;5031305;28;20094;-63
2022/12/08 20:59:26;;;;;;;29.30;15.88;;;4.00;99.90;;;;;;5045079;28;20025;-63
2022/12/08 21:01:51;;;;;;;33.40;16.35;;;4.00;99.90;;;;;;5030234;28;20028;-63
2022/12/08 21:04:17;;;;;;;31.17;16.38;;;4.00;99.90;;;;;;5032219;28;20022;-63
2022/12/08 21:06:43;;;;;;;35.33;17.67;;;4.00;99.90;;;;;;5045333;28;20506;-63
2022/12/08 21:09:08;;;;;;;35.00;17.90;;;4.10;99.90;;;;;;5037432;28;20013;-63
2022/12/08 21:11:34;;;;;;;35.38;17.75;;;4.10;99.90;;;;;;5050320;28;20067;-63
2022/12/08 21:14:00;;;;;;;28.92;16.63;;;4.10;99.90;;;;;;5030858;28;20033;-63
2022/12/08 21:16:26;;;;;;;31.58;16.48;;;4.10;99.90;;;;;;5030094;28;20405;-63
2022/12/08 21:18:51;;;;;;;37.60;18.42;;;4.10;99.90;;;;;;5029857;28;20017;-63
2022/12/08 21:21:18;;;;;;;35.90;18.50;;;4.10;99.90;;;;;;5027944;28;20473;-63
2022/12/08 21:23:44;;;;;;;30.05;16.08;;;4.10;99.90;;;;;;5040656;28;20028;-63
2022/12/08 21:26:18;;;;;;;28.67;14.80;;;4.10;99.90;;;;;;5048281;28;20147;-63
2022/12/08 21:28:43;;;;;;;29.58;16.02;;;4.10;99.90;;;;;;5049335;28;20173;-62
2022/12/08 21:31:15;;;;;;;29.90;14.30;;;4.00;99.90;;;;;;5049552;28;20033;-63
2022/12/08 21:33:41;;;;;;;26.58;14.15;;;4.00;99.90;;;;;;5047966;28;20021;-63
2022/12/08 21:36:10;;;;;;;24.25;12.00;;;4.10;99.90;;;;;;5049984;28;20013;-63
2022/12/08 21:38:37;;;;;;;27.65;14.13;;;4.10;99.90;;;;;;5053556;28;20066;-63
2022/12/08 21:41:14;;;;;;;27.17;13.02;;;4.10;99.90;;;;;;5051130;28;20048;-63
2022/12/08 21:43:40;;;;;;;24.55;13.45;;;4.10;99.90;;;;;;5053328;28;20448;-63
2022/12/08 21:46:14;;;;;;;29.33;14.55;;;4.10;99.90;;;;;;5036856;28;20018;-63
